Time;durP1;ratioP1;P1;durP2;ratioP2;P2;SDS_P1;SDS_P2;PMS_P1;PMS_P2;Temp;Humidity;BMP_temperature;BMP_pressure;BME280_temperature;BME280_humidity;BME280_pressure;Samples;Min_cycle;Max_cycle;Signal;HPM_P1;HPM_P2
2023/04/24 00:02:22;;;;;;;;;;;19.70;53.70;;;;;;4986023;28;19945;-53
2023/04/24 00:04:48;;;;;;;;;;;19.70;53.70;;;;;;4986210;28;19918;-54
2023/04/24 00:07:16;;;;;;;;;;;19.70;53.80;;;;;;4989606;28;20150;-53
2023/04/24 00:09:45;;;;;;;;;;;19.70;53.90;;;;;;4987611;28;19921;-53
2023/04/24 00:12:10;;;;;;;;;;;19.70;53.90;;;;;;4984475;28;19915;-53
2023/04/24 00:14:36;;;;;;;;;;;19.70;53.80;;;;;;4986260;28;19976;-54
2023/04/24 00:17:02;;;;;;;;;;;19.70;54.00;;;;;;4986840;28;20302;-54
2023/04/24 00:19:28;;;;;;;;;;;19.70;54.10;;;;;;4987678;28;19914;-53
2023/04/24 00:21:53;;;;;;;;;;;19.70;54.70;;;;;;4987254;28;19913;-53
2023/04/24 00:24:19;;;;;;;;;;;19.60;54.10;;;;;;4985498;28;20271;-54
2023/04/24 00:26:44;;;;;;;;;;;19.60;54.20;;;;;;5017266;28;19918;-53
2023/04/24 00:29:10;;;;;;;;;;;19.60;54.20;;;;;;4984567;28;19918;-53
2023/04/24 00:31:35;;;;;;;;;;;19.60;54.20;;;;;;4984717;28;20374;-53
2023/04/24 00:34:02;;;;;;;;;;;19.60;54.20;;;;;;4988807;28;20437;-53
2023/04/24 00:36:27;;;;;;;;;;;19.60;54.20;;;;;;4986335;28;20599;-53
2023/04/24 00:38:53;;;;;;;;;;;19.60;54.20;;;;;;4986286;28;19918;-54
2023/04/24 00:41:18;;;;;;;;;;;19.60;54.30;;;;;;4986976;28;19924;-53
2023/04/24 00:43:44;;;;;;;;;;;19.60;54.20;;;;;;4986829;28;19925;-53
2023/04/24 00:46:10;;;;;;;;;;;19.60;54.30;;;;;;4983914;28;19958;-53
2023/04/24 00:48:37;;;;;;;;;;;19.60;54.40;;;;;;4984760;28;19914;-53
2023/04/24 00:51:02;;;;;;;;;;;19.50;54.40;;;;;;5019660;28;20309;-53
2023/04/24 00:53:28;;;;;;;;;;;19.60;54.50;;;;;;5016197;28;20001;-53
2023/04/24 00:55:53;;;;;;;;;;;19.50;54.40;;;;;;4986878;28;20370;-53
2023/04/24 00:58:19;;;;;;;;;;;19.50;54.40;;;;;;4983044;28;20326;-53
2023/04/24 01:00:44;;;;;;;;;;;19.50;54.50;;;;;;5015064;28;19924;-53
2023/04/24 01:03:10;;;;;;;;;;;19.50;54.50;;;;;;4985815;28;19917;-53
2023/04/24 01:05:36;;;;;;;;;;;19.50;54.50;;;;;;4985503;28;20551;-55
2023/04/24 01:08:01;;;;;;;;;;;19.50;54.50;;;;;;5014855;28;20654;-53
2023/04/24 01:10:27;;;;;;;;;;;19.50;54.50;;;;;;4986840;28;20327;-54
2023/04/24 01:12:52;;;;;;;;;;;19.50;54.50;;;;;;4988432;28;19918;-54
2023/04/24 01:15:18;;;;;;;;;;;19.50;54.60;;;;;;4990905;28;20238;-53
2023/04/24 01:17:43;;;;;;;;;;;19.50;54.60;;;;;;4984617;28;19918;-53
2023/04/24 01:20:10;;;;;;;;;;;19.40;54.50;;;;;;4983735;28;19964;-54
2023/04/24 01:22:36;;;;;;;;;;;19.50;54.60;;;;;;4986253;28;19979;-53
2023/04/24 01:25:02;;;;;;;;;;;19.50;54.40;;;;;;4986216;28;19921;-53
2023/04/24 01:27:27;;;;;;;;;;;19.60;54.20;;;;;;5019652;28;19914;-53
2023/04/24 01:29:53;;;;;;;;;;;19.70;54.10;;;;;;4981523;28;19918;-53
2023/04/24 01:32:18;;;;;;;;;;;19.70;53.90;;;;;;4986605;28;20003;-53
2023/04/24 01:34:44;;;;;;;;;;;19.80;53.70;;;;;;5017420;28;19926;-53
2023/04/24 01:37:10;;;;;;;;;;;19.80;53.60;;;;;;4984248;28;19926;-53
2023/04/24 01:39:35;;;;;;;;;;;19.80;53.60;;;;;;4986596;28;19928;-53
2023/04/24 01:42:02;;;;;;;;;;;19.80;53.60;;;;;;4985833;28;19999;-53
2023/04/24 01:44:27;;;;;;;;;;;19.80;53.50;;;;;;4986216;28;19914;-53
2023/04/24 01:46:53;;;;;;;;;;;19.80;53.50;;;;;;4982912;28;19924;-53
2023/04/24 01:49:19;;;;;;;;;;;19.80;53.40;;;;;;4983541;28;20008;-53
2023/04/24 01:51:45;;;;;;;;;;;19.80;53.40;;;;;;4984747;28;19945;-53
2023/04/24 01:54:10;;;;;;;;;;;19.80;53.50;;;;;;4985781;28;20433;-53
2023/04/24 01:56:35;;;;;;;;;;;19.80;53.40;;;;;;4982516;28;19917;-55
2023/04/24 01:59:01;;;;;;;;;;;19.80;53.30;;;;;;4984084;28;19910;-53
2023/04/24 02:01:27;;;;;;;;;;;19.80;53.30;;;;;;4987854;28;20012;-53
2023/04/24 02:03:52;;;;;;;;;;;19.80;53.20;;;;;;4983829;28;19909;-53
2023/04/24 02:06:17;;;;;;;;;;;19.80;53.10;;;;;;4988173;28;19914;-53
2023/04/24 02:08:43;;;;;;;;;;;19.70;53.00;;;;;;4984229;28;19921;-53
2023/04/24 02:11:09;;;;;;;;;;;19.70;53.10;;;;;;4985529;28;20457;-53
2023/04/24 02:13:34;;;;;;;;;;;19.70;53.20;;;;;;4983456;28;21025;-53
2023/04/24 02:16:00;;;;;;;;;;;19.70;53.10;;;;;;4988448;28;20330;-53
2023/04/24 02:18:25;;;;;;;;;;;19.80;53.00;;;;;;4987318;28;19943;-53
2023/04/24 02:20:51;;;;;;;;;;;19.80;52.90;;;;;;4989285;28;20354;-53
2023/04/24 02:23:16;;;;;;;;;;;19.70;52.90;;;;;;4983310;28;20300;-53
2023/04/24 02:25:41;;;;;;;;;;;19.70;52.90;;;;;;4983974;28;19914;-53
2023/04/24 02:28:07;;;;;;;;;;;19.70;52.90;;;;;;4989930;28;19914;-53
2023/04/24 02:30:32;;;;;;;;;;;19.70;53.00;;;;;;4986773;28;20012;-53
2023/04/24 02:32:58;;;;;;;;;;;19.70;52.90;;;;;;4985194;28;19914;-53
2023/04/24 02:35:23;;;;;;;;;;;19.70;52.90;;;;;;4988067;28;19921;-54
2023/04/24 02:37:49;;;;;;;;;;;19.70;53.00;;;;;;4983915;28;19918;-53
2023/04/24 02:40:14;;;;;;;;;;;19.70;53.10;;;;;;4987021;28;19965;-53
2023/04/24 02:42:40;;;;;;;;;;;19.60;53.00;;;;;;4979872;28;19922;-53
2023/04/24 02:45:05;;;;;;;;;;;19.70;53.00;;;;;;4986180;28;19929;-53
2023/04/24 02:47:31;;;;;;;;;;;19.70;53.00;;;;;;4990347;28;20042;-54
2023/04/24 02:49:56;;;;;;;;;;;19.60;52.90;;;;;;5021603;28;19932;-53
2023/04/24 02:52:22;;;;;;;;;;;19.60;52.90;;;;;;4986448;28;19957;-53
2023/04/24 02:54:47;;;;;;;;;;;19.60;53.00;;;;;;4984609;28;19918;-53
2023/04/24 02:57:12;;;;;;;;;;;19.60;53.00;;;;;;4993821;28;20369;-53
2023/04/24 02:59:38;;;;;;;;;;;19.50;53.50;;;;;;5013015;28;19972;-53
2023/04/24 03:02:03;;;;;;;;;;;19.60;52.90;;;;;;4987241;28;19925;-53
2023/04/24 03:04:29;;;;;;;;;;;19.60;52.80;;;;;;4983968;28;19914;-53
2023/04/24 03:06:55;;;;;;;;;;;19.50;52.70;;;;;;5015389;28;19913;-53
2023/04/24 03:09:21;;;;;;;;;;;19.50;52.70;;;;;;4979288;28;20266;-53
2023/04/24 03:11:46;;;;;;;;;;;19.50;52.80;;;;;;4982273;28;19913;-53
2023/04/24 03:14:12;;;;;;;;;;;19.40;52.80;;;;;;4983909;28;19925;-53
2023/04/24 03:16:37;;;;;;;;;;;19.40;52.70;;;;;;4989702;28;20027;-53
2023/04/24 03:19:03;;;;;;;;;;;19.40;52.70;;;;;;4984990;28;19918;-53
2023/04/24 03:21:28;;;;;;;;;;;19.40;52.70;;;;;;4986415;28;19972;-53
2023/04/24 03:23:53;;;;;;;;;;;19.40;52.70;;;;;;4967809;28;20038;-53
2023/04/24 03:26:19;;;;;;;;;;;19.40;52.50;;;;;;4992895;28;19960;-53
2023/04/24 03:28:45;;;;;;;;;;;19.40;52.30;;;;;;4990331;28;19920;-53
2023/04/24 03:31:10;;;;;;;;;;;19.20;52.50;;;;;;4988962;28;19913;-53
2023/04/24 03:33:36;;;;;;;;;;;19.30;52.40;;;;;;4990357;28;20443;-53
2023/04/24 03:36:01;;;;;;;;;;;19.30;52.20;;;;;;4988677;28;19918;-53
2023/04/24 03:38:27;;;;;;;;;;;19.30;52.20;;;;;;4986228;28;19921;-53
2023/04/24 03:40:52;;;;;;;;;;;19.30;52.60;;;;;;4988126;28;19929;-52
2023/04/24 03:43:18;;;;;;;;;;;19.20;51.90;;;;;;5018228;28;19914;-53
2023/04/24 03:45:43;;;;;;;;;;;19.20;51.90;;;;;;4982290;28;19972;-53
2023/04/24 03:48:09;;;;;;;;;;;19.30;51.90;;;;;;4983244;28;19953;-53
2023/04/24 03:50:34;;;;;;;;;;;19.30;51.80;;;;;;4985854;28;19961;-53
2023/04/24 03:53:00;;;;;;;;;;;19.30;51.80;;;;;;4986177;28;19973;-53
2023/04/24 03:55:25;;;;;;;;;;;19.30;51.60;;;;;;4986241;28;19965;-53
2023/04/24 03:57:51;;;;;;;;;;;19.40;51.50;;;;;;4984412;28;19924;-53
2023/04/24 04:00:16;;;;;;;;;;;19.40;51.40;;;;;;4984720;28;20374;-53
2023/04/24 04:02:41;;;;;;;;;;;19.30;51.30;;;;;;4987086;28;19914;-53
2023/04/24 04:05:07;;;;;;;;;;;19.40;51.30;;;;;;4990423;28;19968;-53
2023/04/24 04:07:33;;;;;;;;;;;19.40;51.20;;;;;;4982660;28;19921;-54
2023/04/24 04:09:59;;;;;;;;;;;19.30;51.20;;;;;;4987965;28;20278;-53
2023/04/24 04:12:24;;;;;;;;;;;19.30;51.00;;;;;;4987200;28;19914;-53
2023/04/24 04:14:50;;;;;;;;;;;19.40;50.90;;;;;;4986087;28;20405;-53
2023/04/24 04:17:15;;;;;;;;;;;19.40;50.80;;;;;;5017622;28;19944;-53
2023/04/24 04:19:41;;;;;;;;;;;19.30;50.60;;;;;;4987055;28;23695;-53
2023/04/24 04:22:07;;;;;;;;;;;19.30;50.60;;;;;;4985965;28;19940;-53
2023/04/24 04:24:33;;;;;;;;;;;19.40;50.50;;;;;;5019495;28;19920;-53
2023/04/24 04:26:59;;;;;;;;;;;19.30;50.40;;;;;;4992021;28;20016;-53
2023/04/24 04:29:25;;;;;;;;;;;19.40;50.30;;;;;;4985136;28;20375;-53
2023/04/24 04:31:51;;;;;;;;;;;19.40;50.10;;;;;;4987578;28;19914;-53
2023/04/24 04:34:16;;;;;;;;;;;19.40;49.90;;;;;;4987223;28;19964;-54
2023/04/24 04:36:42;;;;;;;;;;;19.30;49.70;;;;;;4988049;28;19914;-53
2023/04/24 04:39:08;;;;;;;;;;;19.30;49.50;;;;;;4981812;28;20287;-53
2023/04/24 04:41:37;;;;;;;;;;;19.30;49.40;;;;;;4991515;28;19944;-53
2023/04/24 04:44:04;;;;;;;;;;;19.30;49.30;;;;;;4987088;28;20298;-53
2023/04/24 04:46:32;;;;;;;;;;;19.30;49.10;;;;;;5017244;28;19976;-53
2023/04/24 04:48:57;;;;;;;;;;;19.20;48.90;;;;;;4983917;28;20386;-53
2023/04/24 04:51:23;;;;;;;;;;;19.20;48.90;;;;;;4988074;28;19921;-53
2023/04/24 04:53:48;;;;;;;;;;;19.20;48.90;;;;;;4987495;28;20294;-53
2023/04/24 04:56:14;;;;;;;;;;;19.10;48.90;;;;;;4985081;28;19929;-54
2023/04/24 04:58:39;;;;;;;;;;;19.20;48.90;;;;;;4990202;28;19914;-53
2023/04/24 05:01:05;;;;;;;;;;;19.10;48.80;;;;;;5015434;28;19930;-53
2023/04/24 05:03:30;;;;;;;;;;;19.10;48.70;;;;;;4989562;28;19922;-53
2023/04/24 05:05:55;;;;;;;;;;;19.10;48.80;;;;;;4989729;28;19967;-54
2023/04/24 05:08:21;;;;;;;;;;;19.10;48.70;;;;;;5016475;28;19913;-53
2023/04/24 05:10:46;;;;;;;;;;;19.10;49.30;;;;;;4993693;28;19961;-53
2023/04/24 05:13:12;;;;;;;;;;;19.10;48.60;;;;;;4986651;28;19914;-53
2023/04/24 05:15:37;;;;;;;;;;;19.10;48.30;;;;;;4985302;28;19918;-53
2023/04/24 05:18:03;;;;;;;;;;;19.00;48.20;;;;;;5015815;28;20001;-53
2023/04/24 05:20:29;;;;;;;;;;;19.10;48.40;;;;;;4986753;28;19965;-53
2023/04/24 05:22:54;;;;;;;;;;;19.00;48.10;;;;;;4983939;28;19975;-53
2023/04/24 05:25:20;;;;;;;;;;;19.00;48.00;;;;;;4988057;28;19918;-53
2023/04/24 05:27:46;;;;;;;;;;;19.00;47.90;;;;;;4986154;28;20356;-53
2023/04/24 05:30:12;;;;;;;;;;;19.00;47.90;;;;;;4984507;28;19930;-53
2023/04/24 05:32:37;;;;;;;;;;;19.00;48.00;;;;;;4987447;28;20378;-53
2023/04/24 05:35:03;;;;;;;;;;;19.00;47.80;;;;;;4987202;28;20347;-53
2023/04/24 05:37:28;;;;;;;;;;;19.00;47.90;;;;;;4985546;28;20333;-53
2023/04/24 05:39:53;;;;;;;;;;;19.10;48.00;;;;;;4983131;28;19926;-54
2023/04/24 05:42:19;;;;;;;;;;;19.00;47.70;;;;;;4988351;28;19913;-53
2023/04/24 05:44:44;;;;;;;;;;;19.00;47.80;;;;;;4999017;28;19918;-53
2023/04/24 05:47:10;;;;;;;;;;;19.00;47.80;;;;;;4982689;28;20020;-53
2023/04/24 05:49:35;;;;;;;;;;;19.00;47.70;;;;;;5014472;28;20290;-53
2023/04/24 05:52:02;;;;;;;;;;;19.00;47.60;;;;;;4983634;28;20053;-53
2023/04/24 05:54:28;;;;;;;;;;;19.00;47.60;;;;;;4986088;28;20058;-53
2023/04/24 05:56:55;;;;;;;;;;;18.90;47.60;;;;;;4986892;28;19952;-54
2023/04/24 05:59:21;;;;;;;;;;;19.00;48.30;;;;;;4982141;28;19945;-53
2023/04/24 06:01:46;;;;;;;;;;;19.00;47.70;;;;;;4983147;28;20192;-54
2023/04/24 06:04:13;;;;;;;;;;;19.00;47.70;;;;;;4983029;28;19913;-53
2023/04/24 06:06:38;;;;;;;;;;;19.00;47.60;;;;;;4980972;28;20413;-53
2023/04/24 06:09:04;;;;;;;;;;;18.90;47.60;;;;;;4982941;28;19925;-54
2023/04/24 06:11:30;;;;;;;;;;;18.90;47.70;;;;;;4982441;28;20297;-53
2023/04/24 06:13:55;;;;;;;;;;;19.00;47.70;;;;;;4982957;28;19968;-53
2023/04/24 06:16:20;;;;;;;;;;;19.00;47.70;;;;;;4985045;28;20385;-53
2023/04/24 06:18:47;;;;;;;;;;;19.00;47.70;;;;;;4985369;28;20519;-52
2023/04/24 06:21:12;;;;;;;;;;;19.00;47.70;;;;;;4984788;28;19914;-53
2023/04/24 06:23:38;;;;;;;;;;;19.10;47.60;;;;;;4984818;28;19921;-53
2023/04/24 06:26:03;;;;;;;;;;;19.00;47.60;;;;;;4984260;28;20020;-53
2023/04/24 06:28:28;;;;;;;;;;;19.00;47.60;;;;;;5015075;28;19925;-53
2023/04/24 06:30:54;;;;;;;;;;;19.00;47.70;;;;;;4987628;28;20193;-53
2023/04/24 06:33:20;;;;;;;;;;;19.00;47.60;;;;;;4989040;28;20340;-54
2023/04/24 06:35:45;;;;;;;;;;;19.00;47.60;;;;;;4984344;28;20001;-53
2023/04/24 06:38:10;;;;;;;;;;;19.00;47.40;;;;;;4986514;28;19949;-53
2023/04/24 06:40:36;;;;;;;;;;;19.00;47.50;;;;;;4984569;28;20449;-53
2023/04/24 06:43:02;;;;;;;;;;;19.00;47.50;;;;;;4983026;28;20325;-54
2023/04/24 06:45:28;;;;;;;;;;;19.10;47.50;;;;;;4977104;28;19913;-53
2023/04/24 06:47:54;;;;;;;;;;;19.10;47.40;;;;;;4985174;28;19917;-53
2023/04/24 06:50:19;;;;;;;;;;;19.00;47.30;;;;;;4980570;28;19988;-53
2023/04/24 06:52:45;;;;;;;;;;;19.00;47.30;;;;;;4979028;28;19918;-54
2023/04/24 06:55:11;;;;;;;;;;;19.10;47.50;;;;;;4980365;28;20298;-54
2023/04/24 06:57:36;;;;;;;;;;;19.10;47.60;;;;;;4982066;28;19930;-53
2023/04/24 07:00:03;;;;;;;;;;;19.20;47.40;;;;;;4996370;28;19918;-53
2023/04/24 07:02:28;;;;;;;;;;;19.20;47.30;;;;;;4992781;28;20481;-53
2023/04/24 07:04:54;;;;;;;;;;;19.20;47.40;;;;;;4993041;28;19918;-53
2023/04/24 07:07:20;;;;;;;;;;;19.20;47.50;;;;;;4991155;28;19922;-53
2023/04/24 07:09:48;;;;;;;;;;;19.20;47.40;;;;;;4996638;28;19968;-53
2023/04/24 07:12:13;;;;;;;;;;;19.30;47.60;;;;;;4994368;28;20024;-53
2023/04/24 07:14:39;;;;;;;;;;;19.30;47.60;;;;;;4992958;28;20115;-53
2023/04/24 07:17:06;;;;;;;;;;;19.30;47.60;;;;;;4993149;28;19926;-53
2023/04/24 07:19:31;;;;;;;;;;;19.30;47.40;;;;;;4995437;28;20321;-53
2023/04/24 07:21:58;;;;;;;;;;;19.30;47.40;;;;;;4996962;28;19913;-52
2023/04/24 07:24:24;;;;;;;;;;;19.30;47.50;;;;;;4994893;28;19928;-53
2023/04/24 07:26:51;;;;;;;;;;;19.30;47.70;;;;;;4994170;28;19925;-53
2023/04/24 07:29:16;;;;;;;;;;;19.30;47.70;;;;;;4991257;28;19913;-54
2023/04/24 07:31:42;;;;;;;;;;;19.30;47.50;;;;;;4989934;28;19918;-53
2023/04/24 07:34:07;;;;;;;;;;;19.40;47.70;;;;;;4991710;28;19953;-54
2023/04/24 07:36:33;;;;;;;;;;;19.40;47.70;;;;;;5008557;28;19925;-54
2023/04/24 07:38:58;;;;;;;;;;;19.30;47.80;;;;;;4990490;28;19926;-53
2023/04/24 07:41:24;;;;;;;;;;;19.40;47.60;;;;;;4997811;28;20412;-53
2023/04/24 07:43:49;;;;;;;;;;;19.40;47.80;;;;;;4995524;28;20344;-53
2023/04/24 07:46:15;;;;;;;;;;;19.40;47.70;;;;;;5000798;28;20011;-54
2023/04/24 07:48:40;;;;;;;;;;;19.40;47.60;;;;;;5038025;28;19948;-54
2023/04/24 07:51:06;;;;;;;;;;;19.40;47.70;;;;;;4990473;28;19971;-54
2023/04/24 07:53:31;;;;;;;;;;;19.40;47.70;;;;;;4988572;28;19914;-54
2023/04/24 07:55:56;;;;;;;;;;;19.40;47.90;;;;;;4990612;28;20316;-53
2023/04/24 07:58:22;;;;;;;;;;;19.40;47.70;;;;;;4993391;28;20024;-53
2023/04/24 08:00:47;;;;;;;;;;;19.40;47.70;;;;;;4991195;28;19921;-53
2023/04/24 08:03:13;;;;;;;;;;;19.40;47.80;;;;;;4991580;28;19914;-53
2023/04/24 08:05:38;;;;;;;;;;;19.40;47.70;;;;;;4994125;28;20317;-53
2023/04/24 08:08:04;;;;;;;;;;;19.40;47.70;;;;;;4991539;28;19922;-53
2023/04/24 08:10:29;;;;;;;;;;;19.40;47.70;;;;;;4996733;28;19914;-53
2023/04/24 08:12:55;;;;;;;;;;;19.40;47.70;;;;;;5003157;28;20342;-53
2023/04/24 08:15:20;;;;;;;;;;;19.40;47.90;;;;;;5001174;28;20761;-53
2023/04/24 08:17:46;;;;;;;;;;;19.40;47.70;;;;;;4996512;28;20013;-53
2023/04/24 08:20:14;;;;;;;;;;;19.40;47.90;;;;;;4994459;28;19910;-53
2023/04/24 08:22:40;;;;;;;;;;;19.40;47.90;;;;;;4986154;28;19917;-53
2023/04/24 08:25:06;;;;;;;;;;;19.60;48.60;;;;;;4992208;28;20389;-53
2023/04/24 08:27:31;;;;;;;;;;;19.70;47.90;;;;;;4989361;28;19909;-54
2023/04/24 08:29:57;;;;;;;;;;;20.00;47.40;;;;;;5024444;28;20402;-53
2023/04/24 08:32:22;;;;;;;;;;;20.30;47.00;;;;;;4989687;28;20758;-53
2023/04/24 08:34:48;;;;;;;;;;;20.40;46.40;;;;;;4990223;28;19922;-54
2023/04/24 08:37:13;;;;;;;;;;;20.40;46.40;;;;;;4992214;28;19922;-54
2023/04/24 08:39:39;;;;;;;;;;;20.50;46.30;;;;;;4997791;28;19980;-54
2023/04/24 08:42:07;;;;;;;;;;;20.60;46.10;;;;;;5000331;28;19910;-54
2023/04/24 08:44:33;;;;;;;;;;;20.70;45.80;;;;;;4992837;28;19918;-53
2023/04/24 08:46:58;;;;;;;;;;;20.70;45.80;;;;;;4990658;28;20505;-54
2023/04/24 08:49:24;;;;;;;;;;;20.80;45.60;;;;;;4996456;28;19918;-53
2023/04/24 08:51:49;;;;;;;;;;;20.80;45.30;;;;;;5004809;28;19914;-54
2023/04/24 08:54:15;;;;;;;;;;;20.80;45.60;;;;;;4989682;28;20370;-53
2023/04/24 08:56:40;;;;;;;;;;;20.80;45.70;;;;;;4991185;28;20378;-53
2023/04/24 08:59:06;;;;;;;;;;;20.70;45.70;;;;;;5006481;28;19917;-53
2023/04/24 09:01:32;;;;;;;;;;;20.70;45.90;;;;;;4993238;28;19913;-53
2023/04/24 09:03:58;;;;;;;;;;;20.70;45.80;;;;;;4992515;28;20286;-53
2023/04/24 09:06:23;;;;;;;;;;;20.70;46.00;;;;;;4995827;28;19918;-54
2023/04/24 09:08:49;;;;;;;;;;;20.80;46.10;;;;;;4989750;28;19922;-53
2023/04/24 09:11:14;;;;;;;;;;;20.80;46.00;;;;;;5026025;28;19918;-54
2023/04/24 09:13:40;;;;;;;;;;;20.80;45.80;;;;;;5003303;28;19917;-54
2023/04/24 09:16:05;;;;;;;;;;;20.70;45.80;;;;;;4989040;28;20363;-54
2023/04/24 09:18:31;;;;;;;;;;;20.70;46.00;;;;;;4992838;28;20341;-54
2023/04/24 09:20:56;;;;;;;;;;;20.60;45.90;;;;;;4990321;28;19917;-54
2023/04/24 09:23:22;;;;;;;;;;;20.60;46.40;;;;;;4987403;28;19918;-54
2023/04/24 09:25:48;;;;;;;;;;;20.60;45.90;;;;;;4988696;28;19921;-53
2023/04/24 09:28:14;;;;;;;;;;;20.50;46.20;;;;;;5001338;28;19922;-54
2023/04/24 09:30:39;;;;;;;;;;;20.50;46.40;;;;;;5004524;28;19917;-54
2023/04/24 09:33:12;;;;;;;;;;;20.50;46.40;;;;;;4992823;28;20072;-54
2023/04/24 09:35:40;;;;;;;;;;;20.50;46.60;;;;;;4990518;28;19921;-54
2023/04/24 09:38:05;;;;;;;;;;;20.50;46.40;;;;;;4986545;28;20357;-54
2023/04/24 09:40:30;;;;;;;;;;;20.40;46.20;;;;;;4990702;28;19996;-54
2023/04/24 09:43:01;;;;;;;;;;;20.40;46.40;;;;;;5002009;28;20405;-53
2023/04/24 09:45:27;;;;;;;;;;;20.50;46.50;;;;;;4996403;28;19977;-53
2023/04/24 09:47:53;;;;;;;;;;;20.40;46.80;;;;;;4993529;28;19917;-53
2023/04/24 09:50:19;;;;;;;;;;;20.50;46.60;;;;;;4991556;28;20290;-53
2023/04/24 09:52:55;;;;;;;;;;;20.40;46.50;;;;;;4990796;28;19918;-53
2023/04/24 09:55:21;;;;;;;;;;;20.40;46.40;;;;;;4989083;28;19930;-54
2023/04/24 09:57:50;;;;;;;;;;;20.40;46.70;;;;;;5002952;28;19967;-54
2023/04/24 10:00:21;;;;;;;;;;;20.40;46.90;;;;;;5002284;28;19977;-53
2023/04/24 10:02:49;;;;;;;;;;;20.40;46.50;;;;;;5022501;28;19964;-53
2023/04/24 10:05:15;;;;;;;;;;;20.40;46.70;;;;;;4987421;28;20374;-54
2023/04/24 10:07:40;;;;;;;;;;;20.50;47.20;;;;;;4992793;28;20032;-54
2023/04/24 10:10:06;;;;;;;;;;;20.70;46.90;;;;;;4996221;28;19961;-53
2023/04/24 10:12:31;;;;;;;;;;;21.00;46.20;;;;;;5020302;28;19961;-54
2023/04/24 10:14:57;;;;;;;;;;;21.40;45.60;;;;;;5026620;28;19917;-54
2023/04/24 10:17:23;;;;;;;;;;;21.60;44.70;;;;;;5000145;28;20013;-53
2023/04/24 10:19:48;;;;;;;;;;;21.80;44.50;;;;;;5028588;28;19996;-54
2023/04/24 10:22:15;;;;;;;;;;;21.90;44.00;;;;;;4996509;28;20008;-54
2023/04/24 10:24:41;;;;;;;;;;;22.30;43.50;;;;;;4987834;28;19928;-56
2023/04/24 10:27:06;;;;;;;;;;;22.60;42.90;;;;;;5032101;28;20302;-54
2023/04/24 10:29:31;;;;;;;;;;;22.80;42.40;;;;;;4996872;28;19917;-54
2023/04/24 10:31:57;;;;;;;;;;;22.90;42.30;;;;;;4995408;28;19914;-54
2023/04/24 10:34:22;;;;;;;;;;;23.00;42.20;;;;;;4989977;28;19925;-54
2023/04/24 10:36:49;;;;;;;;;;;23.00;42.10;;;;;;4994630;28;19968;-53
2023/04/24 10:39:15;;;;;;;;;;;23.10;41.90;;;;;;4990862;28;19922;-54
2023/04/24 10:41:40;;;;;;;;;;;23.30;41.60;;;;;;4994273;28;20358;-54
2023/04/24 10:44:09;;;;;;;;;;;23.60;41.20;;;;;;5005728;28;19914;-55
2023/04/24 10:46:35;;;;;;;;;;;23.90;40.90;;;;;;4995759;28;20336;-54
2023/04/24 10:49:03;;;;;;;;;;;24.10;40.50;;;;;;4990021;28;20012;-54
2023/04/24 10:51:45;;;;;;;;;;;24.30;40.10;;;;;;4999038;28;19913;-55
2023/04/24 10:54:29;;;;;;;;;;;24.40;40.00;;;;;;4987524;28;19996;-55
2023/04/24 10:57:13;;;;;;;;;;;24.50;39.80;;;;;;4993244;28;20330;-54
2023/04/24 10:59:39;;;;;;;;;;;24.50;40.00;;;;;;4990421;28;19918;-54
2023/04/24 11:02:05;;;;;;;;;;;24.40;40.10;;;;;;4998043;28;20337;-53
2023/04/24 11:04:31;;;;;;;;;;;24.40;40.90;;;;;;5015819;28;20366;-53
2023/04/24 11:06:57;;;;;;;;;;;24.40;40.30;;;;;;4992084;28;19910;-54
2023/04/24 11:09:22;;;;;;;;;;;24.40;40.20;;;;;;4991383;28;19909;-53
2023/04/24 11:11:47;;;;;;;;;;;24.40;40.30;;;;;;4989687;28;19914;-53
2023/04/24 11:14:16;;;;;;;;;;;24.50;40.40;;;;;;4988522;28;20214;-54
2023/04/24 11:16:45;;;;;;;;;;;24.50;40.20;;;;;;4989295;28;19961;-53
2023/04/24 11:19:13;;;;;;;;;;;24.50;40.30;;;;;;4990094;28;19914;-51
2023/04/24 11:21:40;;;;;;;;;;;24.60;40.20;;;;;;4996027;28;19937;-53
2023/04/24 11:24:25;;;;;;;;;;;24.70;40.60;;;;;;4994348;28;19918;-53
2023/04/24 11:26:54;;;;;;;;;;;24.70;40.10;;;;;;4988838;28;19964;-53
2023/04/24 11:29:20;;;;;;;;;;;24.70;39.90;;;;;;4997403;28;19967;-53
2023/04/24 11:31:50;;;;;;;;;;;24.50;40.10;;;;;;4989789;28;19914;-53
2023/04/24 11:34:16;;;;;;;;;;;24.30;40.50;;;;;;5003445;28;20382;-53
2023/04/24 11:36:48;;;;;;;;;;;24.10;41.00;;;;;;4985698;28;19920;-53
2023/04/24 11:39:13;;;;;;;;;;;24.00;41.20;;;;;;4983111;28;19961;-53
2023/04/24 11:41:39;;;;;;;;;;;24.00;41.20;;;;;;4990529;28;19960;-54
2023/04/24 11:44:06;;;;;;;;;;;24.10;40.90;;;;;;4990160;28;20334;-54
2023/04/24 11:46:31;;;;;;;;;;;24.10;41.00;;;;;;4994855;28;19921;-53
2023/04/24 11:48:57;;;;;;;;;;;23.90;41.20;;;;;;4988570;28;19960;-54
2023/04/24 11:51:23;;;;;;;;;;;23.90;41.50;;;;;;4994955;28;19957;-54
2023/04/24 11:53:49;;;;;;;;;;;24.00;41.20;;;;;;4989066;28;19956;-53
2023/04/24 11:56:18;;;;;;;;;;;24.10;40.80;;;;;;4990943;28;19973;-54
2023/04/24 11:58:44;;;;;;;;;;;24.10;40.70;;;;;;4983840;28;20528;-54
2023/04/24 12:01:09;;;;;;;;;;;24.00;40.90;;;;;;4986231;28;19980;-53
2023/04/24 12:03:35;;;;;;;;;;;23.90;41.10;;;;;;5005094;28;20338;-54
2023/04/24 12:06:07;;;;;;;;;;;24.00;41.10;;;;;;4999486;28;20012;-53
2023/04/24 12:08:33;;;;;;;;;;;24.10;40.90;;;;;;4989018;28;20024;-54
2023/04/24 12:10:59;;;;;;;;;;;24.10;41.00;;;;;;4990618;28;20001;-54
2023/04/24 12:13:25;;;;;;;;;;;23.90;41.10;;;;;;4991700;28;19921;-52
2023/04/24 12:15:50;;;;;;;;;;;23.80;41.30;;;;;;4987736;28;19978;-53
2023/04/24 12:18:19;;;;;;;;;;;23.90;41.40;;;;;;4987196;28;19961;-53
2023/04/24 12:20:44;;;;;;;;;;;23.90;41.20;;;;;;4994671;28;20290;-52
2023/04/24 12:23:10;;;;;;;;;;;23.90;42.00;;;;;;4994584;28;19914;-53
2023/04/24 12:25:36;;;;;;;;;;;23.70;41.60;;;;;;4989571;28;19957;-53
2023/04/24 12:28:04;;;;;;;;;;;23.50;41.90;;;;;;4997828;28;19971;-53
2023/04/24 12:30:30;;;;;;;;;;;23.30;42.10;;;;;;4987837;28;19953;-53
2023/04/24 12:33:00;;;;;;;;;;;23.10;42.50;;;;;;4989050;28;19920;-54
2023/04/24 12:35:26;;;;;;;;;;;23.00;42.80;;;;;;4993803;28;20390;-53
2023/04/24 12:37:52;;;;;;;;;;;22.80;43.00;;;;;;4991931;28;19936;-53
2023/04/24 12:40:18;;;;;;;;;;;22.60;43.40;;;;;;4992184;28;19929;-53
2023/04/24 12:42:44;;;;;;;;;;;22.50;43.50;;;;;;4991634;28;20351;-53
2023/04/24 12:45:11;;;;;;;;;;;22.40;43.90;;;;;;4994736;28;19918;-52
2023/04/24 12:47:37;;;;;;;;;;;22.30;44.10;;;;;;4999692;28;19921;-54
2023/04/24 12:50:02;;;;;;;;;;;22.20;44.20;;;;;;5002102;28;19913;-53
2023/04/24 12:52:28;;;;;;;;;;;22.10;44.40;;;;;;4997307;28;19917;-53
2023/04/24 12:54:54;;;;;;;;;;;21.90;44.50;;;;;;4981291;28;19922;-53
2023/04/24 12:57:20;;;;;;;;;;;21.90;44.70;;;;;;4989578;28;20298;-53
2023/04/24 12:59:46;;;;;;;;;;;21.80;44.80;;;;;;4990412;28;19921;-53
2023/04/24 13:02:11;;;;;;;;;;;21.70;44.90;;;;;;4992706;28;19914;-54
2023/04/24 13:04:37;;;;;;;;;;;21.60;45.10;;;;;;4994488;28;20007;-53
2023/04/24 13:07:02;;;;;;;;;;;21.60;45.30;;;;;;4991463;28;19938;-53
2023/04/24 13:09:28;;;;;;;;;;;21.50;45.40;;;;;;4988285;28;20285;-53
2023/04/24 13:11:53;;;;;;;;;;;21.50;45.40;;;;;;5008631;28;19918;-52
2023/04/24 13:14:19;;;;;;;;;;;21.50;45.40;;;;;;5027273;28;20357;-53
2023/04/24 13:16:44;;;;;;;;;;;21.50;45.50;;;;;;5005221;28;19913;-53
2023/04/24 13:19:10;;;;;;;;;;;21.50;45.40;;;;;;4989782;28;20020;-53
2023/04/24 13:21:35;;;;;;;;;;;21.50;45.40;;;;;;4989269;28;19913;-52
2023/04/24 13:24:01;;;;;;;;;;;21.50;45.20;;;;;;4987714;28;20383;-53
2023/04/24 13:26:26;;;;;;;;;;;21.60;45.00;;;;;;4989872;28;20386;-53
2023/04/24 13:28:52;;;;;;;;;;;21.70;44.80;;;;;;4990999;28;19924;-53
2023/04/24 13:31:17;;;;;;;;;;;21.90;44.70;;;;;;4992574;28;19925;-53
2023/04/24 13:33:43;;;;;;;;;;;22.00;44.60;;;;;;4999189;28;19913;-52
2023/04/24 13:36:08;;;;;;;;;;;22.10;44.30;;;;;;4988092;28;19972;-53
2023/04/24 13:38:33;;;;;;;;;;;22.20;44.20;;;;;;4989827;28;19925;-53
2023/04/24 13:40:59;;;;;;;;;;;22.30;44.10;;;;;;5006005;28;19933;-53
2023/04/24 13:43:24;;;;;;;;;;;22.30;44.10;;;;;;4992365;28;19916;-53
2023/04/24 13:45:50;;;;;;;;;;;22.30;44.10;;;;;;4996328;28;20330;-53
2023/04/24 13:48:15;;;;;;;;;;;22.20;44.20;;;;;;4988049;28;20259;-53
2023/04/24 13:50:41;;;;;;;;;;;22.20;44.20;;;;;;4987565;28;19918;-54
2023/04/24 13:53:07;;;;;;;;;;;22.10;44.30;;;;;;4990596;28;19920;-54
2023/04/24 13:55:32;;;;;;;;;;;22.10;44.30;;;;;;5007066;28;20005;-54
2023/04/24 13:57:58;;;;;;;;;;;22.00;44.30;;;;;;4996168;28;19921;-54
2023/04/24 14:00:23;;;;;;;;;;;21.90;44.40;;;;;;5001621;28;19928;-54
2023/04/24 14:02:49;;;;;;;;;;;21.90;44.60;;;;;;4991462;28;19960;-54
2023/04/24 14:05:15;;;;;;;;;;;21.90;44.80;;;;;;4989222;28;20267;-53
2023/04/24 14:07:40;;;;;;;;;;;22.10;44.50;;;;;;4994187;28;19921;-53
2023/04/24 14:10:06;;;;;;;;;;;22.30;44.40;;;;;;4991904;28;19921;-53